| time (UTC) | temp F | wind direction | speed MPH | gust MPH | rain 1hr in | rain 24hr in | rain mn in | humidity % | barometer mb |
| 20260507144838 | 54 | 143 | 0.0 | 1.0 | 0.00 | 0.00 | 0.04 | 58 | 1012.5 |
| 20260507144337 | 55 | 5 | 3.0 | 3.0 | 0.00 | 0.00 | 0.04 | 55 | 1012.2 |
| 20260507143838 | 54 | 136 | 1.0 | 1.0 | 0.00 | 0.00 | 0.04 | 57 | 1012.3 |
| 20260507143338 | 54 | 104 | 0.0 | 0.0 | 0.00 | 0.00 | 0.04 | 58 | 1012.5 |
| 20260507142838 | 54 | 89 | 1.0 | 1.0 | 0.00 | 0.00 | 0.04 | 58 | 1012.5 |
| 20260507142338 | 54 | 67 | 1.0 | 1.0 | 0.00 | 0.00 | 0.04 | 58 | 1012.3 |
| 20260507141838 | 54 | 118 | 0.0 | 0.0 | 0.00 | 0.00 | 0.04 | 59 | 1012.6 |
| 20260507141337 | 54 | 15 | 2.0 | 2.0 | 0.00 | 0.00 | 0.04 | 58 | 1012.7 |
| 20260507140838 | 54 | 46 | 2.0 | 3.0 | 0.00 | 0.00 | 0.04 | 60 | 1012.6 |
| 20260507140338 | 54 | 120 | 2.0 | 3.0 | 0.00 | 0.00 | 0.04 | 60 | 1012.5 |
| 20260507135837 | 54 | 358 | 4.0 | 7.0 | 0.00 | 0.00 | 0.04 | 59 | 1012.7 |
| 20260507135337 | 54 | 320 | 4.0 | 6.0 | 0.00 | 0.00 | 0.04 | 58 | 1012.5 |
| 20260507134838 | 54 | 43 | 3.0 | 3.0 | 0.00 | 0.00 | 0.04 | 59 | 1012.8 |
| 20260507134338 | 54 | 162 | 0.0 | 1.0 | 0.00 | 0.00 | 0.04 | 62 | 1012.7 |
| 20260507133838 | 54 | 124 | 1.0 | 1.0 | 0.00 | 0.00 | 0.04 | 63 | 1012.8 |
| 20260507133337 | 54 | 131 | 1.0 | 1.0 | 0.00 | 0.00 | 0.04 | 64 | 1012.7 |
| 20260507132838 | 54 | 349 | 4.0 | 4.0 | 0.00 | 0.00 | 0.04 | 62 | 1012.9 |
| 20260507132338 | 54 | 40 | 0.0 | 2.0 | 0.00 | 0.00 | 0.04 | 63 | 1012.7 |
| 20260507131838 | 54 | 34 | 2.0 | 3.0 | 0.00 | 0.00 | 0.04 | 64 | 1012.7 |
| 20260507131337 | 54 | 17 | 2.0 | 3.0 | 0.00 | 0.00 | 0.04 | 65 | 1012.4 |
| 20260507130838 | 54 | 50 | 2.0 | 3.0 | 0.00 | 0.00 | 0.04 | 64 | 1012.6 |
| 20260507130338 | 54 | 49 | 2.0 | 2.0 | 0.00 | 0.00 | 0.04 | 66 | 1012.7 |
| 20260507125837 | 54 | 42 | 1.0 | 1.0 | 0.00 | 0.00 | 0.04 | 66 | 1012.6 |
| 20260507125338 | 54 | 65 | 2.0 | 2.0 | 0.00 | 0.00 | 0.04 | 67 | 1012.6 |
| 20260507124838 | 54 | 46 | 1.0 | 2.0 | 0.00 | 0.00 | 0.04 | 67 | 1012.3 |
| 20260507124337 | 54 | 33 | 3.0 | 3.0 | 0.00 | 0.00 | 0.04 | 66 | 1012.7 |
| 20260507123837 | 54 | 41 | 2.0 | 2.0 | 0.00 | 0.00 | 0.04 | 66 | 1012.5 |
| 20260507123338 | 54 | 52 | 3.0 | 3.0 | 0.00 | 0.00 | 0.04 | 67 | 1012.6 |
| 20260507122837 | 54 | 115 | 1.0 | 1.0 | 0.00 | 0.00 | 0.04 | 67 | 1012.9 |
| 20260507122338 | 54 | 326 | 4.0 | 4.0 | 0.00 | 0.00 | 0.04 | 67 | 1012.7 |
| 20260507121837 | 54 | 151 | 2.0 | 3.0 | 0.00 | 0.00 | 0.04 | 67 | 1012.6 |
| 20260507121338 | 54 | 23 | 3.0 | 3.0 | 0.00 | 0.00 | 0.04 | 67 | 1012.4 |
| 20260507120838 | 54 | 145 | 2.0 | 3.0 | 0.00 | 0.00 | 0.04 | 68 | 1012.4 |
| 20260507120338 | 54 | 92 | 3.0 | 4.0 | 0.00 | 0.00 | 0.04 | 68 | 1012.4 |
| 20260507115837 | 54 | 60 | 1.0 | 1.0 | 0.00 | 0.00 | 0.04 | 70 | 1012.6 |
| 20260507115338 | 54 | 8 | 3.0 | 4.0 | 0.00 | 0.00 | 0.04 | 71 | 1012.3 |
| 20260507114838 | 54 | 105 | 1.0 | 2.0 | 0.00 | 0.00 | 0.04 | 72 | 1012.2 |
| 20260507114338 | 54 | 114 | 0.0 | 1.0 | 0.00 | 0.00 | 0.04 | 72 | 1012.2 |
| 20260507113838 | 54 | 116 | 1.0 | 1.0 | 0.00 | 0.00 | 0.04 | 71 | 1012.0 |
| 20260507113338 | 54 | 98 | 1.0 | 1.0 | 0.00 | 0.00 | 0.04 | 70 | 1011.8 |
| 20260507112837 | 54 | 131 | 1.0 | 1.0 | 0.00 | 0.00 | 0.04 | 72 | 1011.8 |
| 20260507112337 | 54 | 18 | 4.0 | 6.0 | 0.00 | 0.00 | 0.04 | 70 | 1012.1 |
| 20260507111837 | 54 | 61 | 2.0 | 2.0 | 0.00 | 0.00 | 0.04 | 70 | 1012.0 |
| 20260507111338 | 54 | 161 | 3.0 | 4.0 | 0.00 | 0.00 | 0.04 | 72 | 1012.1 |
| 20260507110837 | 54 | 354 | 2.0 | 2.0 | 0.00 | 0.00 | 0.04 | 74 | 1011.6 |
| 20260507110338 | 54 | 13 | 2.0 | 3.0 | 0.00 | 0.00 | 0.04 | 75 | 1012.2 |
| 20260507105838 | 54 | 11 | 1.0 | 2.0 | 0.00 | 0.00 | 0.04 | 76 | 1012.0 |
| 20260507105337 | 54 | 107 | 0.0 | 0.0 | 0.00 | 0.00 | 0.04 | 77 | 1012.0 |
| 20260507104837 | 54 | 1 | 2.0 | 2.0 | 0.00 | 0.00 | 0.04 | 76 | 1011.9 |
| 20260507104337 | 54 | 59 | 2.0 | 2.0 | 0.00 | 0.00 | 0.04 | 76 | 1011.8 |
| 20260507103837 | 54 | 346 | 2.0 | 3.0 | 0.00 | 0.00 | 0.04 | 77 | 1011.7 |
| 20260507103338 | 54 | 108 | 2.0 | 2.0 | 0.00 | 0.00 | 0.04 | 76 | 1011.8 |
| 20260507102837 | 54 | 336 | 2.0 | 2.0 | 0.00 | 0.00 | 0.04 | 77 | 1011.8 |
| 20260507102337 | 54 | 35 | 0.0 | 1.0 | 0.00 | 0.00 | 0.04 | 79 | 1011.4 |
| 20260507101837 | 54 | 95 | 0.0 | 0.0 | 0.00 | 0.00 | 0.04 | 78 | 1011.6 |
| 20260507101337 | 54 | 85 | 0.0 | 1.0 | 0.00 | 0.00 | 0.04 | 78 | 1011.4 |
| 20260507100838 | 54 | 142 | 1.0 | 1.0 | 0.00 | 0.00 | 0.04 | 79 | 1011.3 |
| 20260507100337 | 54 | 102 | 2.0 | 2.0 | 0.00 | 0.00 | 0.04 | 78 | 1011.6 |
| 20260507095838 | 54 | 129 | 1.0 | 1.0 | 0.00 | 0.00 | 0.04 | 79 | 1011.6 |
| 20260507095338 | 54 | 133 | 0.0 | 0.0 | 0.00 | 0.00 | 0.04 | 79 | 1011.4 |
| 20260507094837 | 54 | 95 | 0.0 | 0.0 | 0.00 | 0.00 | 0.04 | 79 | 1011.3 |
| 20260507094338 | 54 | 127 | 1.0 | 1.0 | 0.00 | 0.00 | 0.04 | 79 | 1011.6 |
| 20260507093838 | 54 | 122 | 2.0 | 3.0 | 0.00 | 0.00 | 0.04 | 79 | 1011.4 |
| 20260507093338 | 54 | 353 | 3.0 | 3.0 | 0.00 | 0.00 | 0.04 | 79 | 1011.6 |
| 20260507092838 | 54 | 80 | 1.0 | 2.0 | 0.00 | 0.00 | 0.04 | 79 | 1011.4 |
| 20260507092338 | 54 | 116 | 1.0 | 1.0 | 0.00 | 0.00 | 0.04 | 80 | 1011.2 |
| 20260507091838 | 54 | 359 | 2.0 | 2.0 | 0.00 | 0.00 | 0.04 | 80 | 1010.8 |
| 20260507091338 | 55 | 39 | 1.0 | 1.0 | 0.00 | 0.00 | 0.04 | 80 | 1011.3 |
| 20260507090837 | 54 | 336 | 2.0 | 3.0 | 0.00 | 0.00 | 0.04 | 80 | 1011.1 |
| 20260507090337 | 54 | 30 | 2.0 | 3.0 | 0.00 | 0.00 | 0.04 | 82 | 1011.1 |
| 20260507085837 | 55 | 56 | 2.0 | 3.0 | 0.00 | 0.00 | 0.04 | 82 | 1011.0 |
| 20260507085337 | 55 | 45 | 1.0 | 2.0 | 0.00 | 0.00 | 0.04 | 82 | 1011.2 |
| 20260507084838 | 55 | 22 | 3.0 | 3.0 | 0.00 | 0.00 | 0.04 | 83 | 1011.1 |
| 20260507084338 | 55 | 43 | 2.0 | 3.0 | 0.00 | 0.00 | 0.04 | 83 | 1011.1 |
| 20260507083838 | 54 | 51 | 2.0 | 3.0 | 0.00 | 0.00 | 0.04 | 84 | 1011.1 |
| 20260507083338 | 55 | 78 | 1.0 | 1.0 | 0.00 | 0.00 | 0.04 | 86 | 1011.0 |
| 20260507082837 | 54 | 125 | 1.0 | 2.0 | 0.00 | 0.00 | 0.04 | 85 | 1011.3 |
| 20260507082338 | 55 | 94 | 1.0 | 2.0 | 0.00 | 0.00 | 0.04 | 85 | 1011.2 |
| 20260507081838 | 54 | 145 | 2.0 | 3.0 | 0.00 | 0.00 | 0.04 | 85 | 1011.0 |
| 20260507081337 | 54 | 55 | 1.0 | 2.0 | 0.00 | 0.00 | 0.04 | 86 | 1011.0 |
| 20260507080837 | 54 | 348 | 2.0 | 3.0 | 0.00 | 0.00 | 0.04 | 86 | 1010.7 |
| 20260507080338 | 54 | 43 | 2.0 | 3.0 | 0.00 | 0.00 | 0.04 | 86 | 1010.7 |
| 20260507075837 | 54 | 114 | 1.0 | 1.0 | 0.00 | 0.00 | 0.04 | 86 | 1010.6 |
| 20260507075338 | 54 | 110 | 0.0 | 1.0 | 0.00 | 0.00 | 0.04 | 86 | 1010.4 |
| 20260507074837 | 54 | 46 | 1.0 | 2.0 | 0.00 | 0.00 | 0.04 | 85 | 1010.4 |
| 20260507074338 | 55 | 117 | 2.0 | 3.0 | 0.00 | 0.00 | 0.04 | 85 | 1010.6 |
| 20260507073838 | 55 | 7 | 2.0 | 3.0 | 0.00 | 0.00 | 0.04 | 85 | 1010.6 |
| 20260507073338 | 55 | 81 | 1.0 | 1.0 | 0.00 | 0.00 | 0.04 | 86 | 1010.5 |
| 20260507072837 | 55 | 100 | 2.0 | 3.0 | 0.00 | 0.00 | 0.04 | 85 | 1010.6 |
| 20260507072338 | 55 | 6 | 3.0 | 4.0 | 0.00 | 0.00 | 0.04 | 86 | 1010.3 |
| 20260507071838 | 55 | 12 | 2.0 | 3.0 | 0.00 | 0.00 | 0.04 | 86 | 1010.4 |
| 20260507071337 | 55 | 26 | 1.0 | 1.0 | 0.00 | 0.00 | 0.04 | 87 | 1010.4 |
| 20260507070838 | 55 | 300 | 3.0 | 4.0 | 0.00 | 0.00 | 0.04 | 87 | 1010.6 |
| 20260507070338 | 55 | 48 | 1.0 | 2.0 | 0.00 | 0.00 | 0.04 | 88 | 1010.5 |
| 20260507065837 | 55 | 3 | 4.0 | 4.0 | 0.00 | 0.00 | 0.04 | 88 | 1010.4 |
| 20260507065338 | 55 | 54 | 2.0 | 3.0 | 0.00 | 0.00 | 0.04 | 87 | 1010.6 |
| 20260507064838 | 55 | 49 | 1.0 | 3.0 | 0.00 | 0.00 | 0.04 | 87 | 1010.8 |
| 20260507064337 | 55 | 5 | 3.0 | 3.0 | 0.00 | 0.00 | 0.04 | 86 | 1010.8 |
| 20260507063837 | 55 | 10 | 4.0 | 4.0 | 0.00 | 0.00 | 0.04 | 86 | 1010.5 |
| 20260507063338 | 55 | 1 | 3.0 | 4.0 | 0.00 | 0.00 | 0.04 | 87 | 1010.5 |
| 20260507062837 | 55 | 70 | 1.0 | 1.0 | 0.00 | 0.00 | 0.04 | 88 | 1010.5 |
| 20260507062337 | 55 | 106 | 2.0 | 2.0 | 0.00 | 0.00 | 0.04 | 89 | 1010.6 |
| 20260507061837 | 55 | 102 | 1.0 | 1.0 | 0.00 | 0.00 | 0.04 | 89 | 1010.8 |
| 20260507061338 | 55 | 343 | 4.0 | 7.0 | 0.00 | 0.00 | 0.04 | 90 | 1010.2 |
| 20260507060838 | 55 | 340 | 2.0 | 3.0 | 0.00 | 0.00 | 0.04 | 91 | 1010.3 |
| 20260507060337 | 55 | 14 | 2.0 | 2.0 | 0.00 | 0.00 | 0.04 | 91 | 1010.3 |
| 20260507055838 | 56 | 25 | 4.0 | 6.0 | 0.00 | 0.00 | 0.04 | 92 | 1010.4 |
| 20260507055337 | 56 | 54 | 0.0 | 0.0 | 0.00 | 0.00 | 0.04 | 93 | 1010.4 |
| 20260507054837 | 56 | 7 | 3.0 | 3.0 | 0.00 | 0.00 | 0.04 | 93 | 1010.4 |
| 20260507054338 | 56 | 98 | 2.0 | 4.0 | 0.00 | 0.00 | 0.04 | 93 | 1010.3 |
| 20260507053838 | 56 | 352 | 4.0 | 4.0 | 0.00 | 0.00 | 0.04 | 93 | 1010.6 |
| 20260507053337 | 56 | 28 | 3.0 | 3.0 | 0.00 | 0.00 | 0.03 | 93 | 1010.6 |
| 20260507052838 | 56 | 13 | 2.0 | 3.0 | 0.00 | 0.00 | 0.03 | 92 | 1010.5 |
| 20260507052337 | 57 | 5 | 3.0 | 3.0 | 0.00 | 0.00 | 0.03 | 91 | 1010.7 |
| 20260507051838 | 57 | 2 | 5.0 | 8.0 | 0.00 | 0.00 | 0.03 | 91 | 1010.7 |
| 20260507051338 | 57 | 128 | 1.0 | 2.0 | 0.00 | 0.00 | 0.03 | 91 | 1010.4 |
| 20260507050838 | 57 | 34 | 3.0 | 4.0 | 0.00 | 0.00 | 0.03 | 91 | 1009.8 |
| 20260507050338 | 57 | 36 | 3.0 | 3.0 | 0.00 | 0.00 | 0.03 | 91 | 1010.4 |
| 20260507045837 | 57 | 1 | 4.0 | 4.0 | 0.00 | 0.00 | 0.03 | 91 | 1010.7 |
| 20260507045338 | 57 | 79 | 1.0 | 2.0 | 0.00 | 0.00 | 0.03 | 91 | 1010.8 |
| 20260507044837 | 57 | 118 | 1.0 | 1.0 | 0.00 | 0.00 | 0.03 | 92 | 1010.6 |
| 20260507044338 | 58 | 141 | 1.0 | 1.0 | 0.00 | 0.00 | 0.03 | 92 | 1010.4 |
| 20260507043837 | 59 | 66 | 2.0 | 2.0 | 0.00 | 0.00 | 0.03 | 90 | 1010.3 |
| 20260507043338 | 59 | 116 | 1.0 | 2.0 | 0.00 | 0.00 | 0.03 | 89 | 1010.9 |
| 20260507042838 | 59 | 51 | 2.0 | 3.0 | 0.00 | 0.00 | 0.01 | 87 | 1010.5 |
| 20260507042338 | 59 | 119 | 0.0 | 0.0 | 0.00 | 0.00 | 0.01 | 87 | 1010.9 |
| 20260507041837 | 60 | 346 | 4.0 | 4.0 | 0.00 | 0.00 | 0.00 | 85 | 1010.9 |
| 20260507041337 | 60 | 351 | 3.0 | 3.0 | 0.00 | 0.00 | 0.00 | 83 | 1010.5 |
| 20260507040838 | 60 | 58 | 3.0 | 3.0 | 0.00 | 0.00 | 0.00 | 83 | 1010.5 |
| 20260507040338 | 60 | 9 | 3.0 | 4.0 | 0.00 | 0.00 | 0.00 | 82 | 1010.3 |
| 20260507035837 | 60 | 112 | 0.0 | 1.0 | 0.00 | 0.00 | 0.32 | 82 | 1010.4 |
| 20260507035338 | 60 | 359 | 2.0 | 2.0 | 0.00 | 0.00 | 0.32 | 83 | 1010.1 |
| 20260507034838 | 60 | 7 | 2.0 | 2.0 | 0.00 | 0.00 | 0.32 | 82 | 1010.3 |
| 20260507034338 | 60 | 93 | 1.0 | 1.0 | 0.00 | 0.00 | 0.32 | 83 | 1010.1 |
| 20260507033838 | 61 | 29 | 1.0 | 1.0 | 0.00 | 0.00 | 0.32 | 82 | 1010.5 |
| 20260507033338 | 61 | 155 | 2.0 | 2.0 | 0.00 | 0.00 | 0.32 | 80 | 1010.2 |
| 20260507032838 | 62 | 129 | 1.0 | 2.0 | 0.00 | 0.00 | 0.32 | 79 | 1010.2 |
| 20260507032338 | 62 | 23 | 2.0 | 2.0 | 0.00 | 0.00 | 0.32 | 78 | 1010.3 |
| 20260507031838 | 62 | 88 | 2.0 | 3.0 | 0.00 | 0.00 | 0.32 | 78 | 1010.5 |
| 20260507031338 | 62 | 5 | 5.0 | 7.0 | 0.00 | 0.00 | 0.32 | 80 | 1010.3 |
| 20260507030838 | 62 | 358 | 4.0 | 4.0 | 0.00 | 0.00 | 0.32 | 80 | 1010.2 |
| 20260507030337 | 62 | 9 | 4.0 | 6.0 | 0.00 | 0.00 | 0.32 | 81 | 1010.1 |
| 20260507025838 | 62 | 11 | 6.0 | 8.0 | 0.00 | 0.00 | 0.32 | 82 | 1009.6 |
| 20260507025338 | 63 | 119 | 2.0 | 2.0 | 0.00 | 0.00 | 0.32 | 84 | 1009.4 |
| 20260507024837 | 63 | 92 | 1.0 | 1.0 | 0.00 | 0.00 | 0.32 | 85 | 1009.3 |
| 20260507024337 | 64 | 94 | 2.0 | 3.0 | 0.00 | 0.00 | 0.32 | 85 | 1009.7 |
| 20260507023837 | 64 | 116 | 1.0 | 2.0 | 0.00 | 0.00 | 0.32 | 84 | 1009.9 |
| 20260507023337 | 64 | 20 | 2.0 | 2.0 | 0.00 | 0.00 | 0.32 | 85 | 1009.6 |
| 20260507022837 | 64 | 1 | 2.0 | 2.0 | 0.00 | 0.00 | 0.32 | 85 | 1009.4 |
| 20260507022337 | 64 | 99 | 4.0 | 4.0 | 0.00 | 0.00 | 0.32 | 85 | 1009.5 |
| 20260507021838 | 65 | 23 | 3.0 | 4.0 | 0.00 | 0.00 | 0.32 | 85 | 1009.2 |
| 20260507021338 | 65 | 71 | 1.0 | 1.0 | 0.00 | 0.00 | 0.32 | 85 | 1009.2 |
| 20260507020837 | 66 | 131 | 2.0 | 2.0 | 0.00 | 0.00 | 0.32 | 84 | 1009.3 |
| 20260507020338 | 66 | 105 | 0.0 | 0.0 | 0.00 | 0.00 | 0.32 | 84 | 1009.1 |
| 20260507015838 | 66 | 7 | 3.0 | 4.0 | 0.00 | 0.00 | 0.32 | 84 | 1009.3 |
| 20260507015337 | 66 | 11 | 1.0 | 1.0 | 0.00 | 0.00 | 0.32 | 83 | 1009.2 |
| 20260507014838 | 66 | 16 | 2.0 | 3.0 | 0.00 | 0.00 | 0.32 | 83 | 1009.1 |
| 20260507014337 | 66 | 100 | 1.0 | 2.0 | 0.00 | 0.00 | 0.32 | 82 | 1009.2 |
| 20260507013838 | 66 | 43 | 1.0 | 2.0 | 0.00 | 0.00 | 0.32 | 82 | 1008.9 |
| 20260507013338 | 66 | 32 | 2.0 | 3.0 | 0.00 | 0.00 | 0.32 | 82 | 1009.1 |
| 20260507012837 | 67 | 332 | 4.0 | 6.0 | 0.00 | 0.00 | 0.32 | 82 | 1009.1 |
| 20260507012338 | 66 | 38 | 3.0 | 3.0 | 0.00 | 0.00 | 0.32 | 84 | 1009.5 |
| 20260507011838 | 67 | 244 | 2.0 | 2.0 | 0.00 | 0.00 | 0.32 | 88 | 1009.3 |
| 20260507011338 | 67 | 14 | 2.0 | 3.0 | 0.00 | 0.00 | 0.32 | 90 | 1009.5 |
| 20260507010838 | 67 | 108 | 2.0 | 2.0 | 0.00 | 0.00 | 0.32 | 91 | 1009.4 |
| 20260507010338 | 67 | 74 | 1.0 | 1.0 | 0.00 | 0.00 | 0.32 | 91 | 1009.2 |
| 20260507005838 | 67 | 118 | 0.0 | 0.0 | 0.00 | 0.00 | 0.32 | 91 | 1009.2 |
| 20260507005337 | 67 | 159 | 1.0 | 1.0 | 0.00 | 0.00 | 0.32 | 91 | 1009.0 |
| 20260507004838 | 67 | 120 | 0.0 | 0.0 | 0.00 | 0.00 | 0.32 | 91 | 1008.9 |
| 20260507004337 | 67 | 120 | 0.0 | 0.0 | 0.00 | 0.00 | 0.32 | 91 | 1009.1 |
| 20260507003838 | 67 | 48 | 0.0 | 0.0 | 0.00 | 0.00 | 0.32 | 90 | 1009.2 |
| 20260507003337 | 67 | 124 | 0.0 | 0.0 | 0.00 | 0.00 | 0.32 | 90 | 1009.2 |
| 20260507002837 | 67 | 121 | 0.0 | 0.0 | 0.00 | 0.00 | 0.32 | 89 | 1009.1 |
| 20260507002337 | 67 | 108 | 0.0 | 0.0 | 0.00 | 0.00 | 0.32 | 89 | 1008.9 |
| 20260507001838 | 67 | 120 | 0.0 | 0.0 | 0.00 | 0.00 | 0.32 | 88 | 1008.8 |
| 20260507001337 | 68 | 120 | 0.0 | 0.0 | 0.00 | 0.00 | 0.32 | 87 | 1008.8 |
| 20260507000837 | 68 | 117 | 0.0 | 0.0 | 0.00 | 0.00 | 0.31 | 87 | 1008.7 |
| 20260507000338 | 68 | 119 | 0.0 | 0.0 | 0.00 | 0.00 | 0.31 | 85 | 1008.6 |
| 20260506235837 | 68 | 122 | 0.0 | 0.0 | 0.00 | 0.00 | 0.31 | 83 | 1008.4 |
| 20260506235338 | 68 | 124 | 0.0 | 0.0 | 0.00 | 0.00 | 0.31 | 83 | 1008.7 |
| 20260506234837 | 68 | 120 | 0.0 | 0.0 | 0.00 | 0.00 | 0.31 | 82 | 1008.6 |
| 20260506234338 | 68 | 121 | 0.0 | 0.0 | 0.00 | 0.00 | 0.31 | 82 | 1008.6 |
| 20260506233837 | 68 | 121 | 0.0 | 0.0 | 0.00 | 0.00 | 0.31 | 82 | 1008.4 |
| 20260506233338 | 69 | 117 | 0.0 | 0.0 | 0.00 | 0.00 | 0.31 | 82 | 1008.1 |
| 20260506232837 | 69 | 26 | 0.0 | 0.0 | 0.00 | 0.00 | 0.31 | 82 | 1008.2 |
| 20260506232337 | 69 | 26 | 0.0 | 0.0 | 0.00 | 0.00 | 0.31 | 82 | 1008.3 |
| 20260506231837 | 69 | 121 | 0.0 | 0.0 | 0.00 | 0.00 | 0.31 | 81 | 1007.9 |
| 20260506231337 | 69 | 122 | 0.0 | 0.0 | 0.00 | 0.00 | 0.31 | 81 | 1008.1 |
| 20260506230837 | 69 | 120 | 0.0 | 0.0 | 0.00 | 0.00 | 0.31 | 81 | 1008.0 |
| 20260506230338 | 69 | 116 | 1.0 | 1.0 | 0.00 | 0.00 | 0.31 | 80 | 1008.1 |
| 20260506225837 | 69 | 138 | 1.0 | 2.0 | 0.00 | 0.00 | 0.31 | 80 | 1008.0 |
| 20260506225337 | 70 | 93 | 2.0 | 2.0 | 0.00 | 0.00 | 0.31 | 80 | 1007.9 |
| 20260506224837 | 70 | 121 | 0.0 | 0.0 | 0.00 | 0.00 | 0.31 | 80 | 1007.9 |
| 20260506224337 | 70 | 113 | 0.0 | 0.0 | 0.00 | 0.00 | 0.31 | 79 | 1007.9 |
| 20260506223838 | 70 | 80 | 1.0 | 1.0 | 0.00 | 0.00 | 0.31 | 79 | 1007.5 |
| 20260506223338 | 70 | 115 | 0.0 | 0.0 | 0.00 | 0.00 | 0.31 | 79 | 1007.8 |
| 20260506222837 | 70 | 118 | 1.0 | 1.0 | 0.00 | 0.00 | 0.31 | 79 | 1007.8 |
| 20260506222337 | 69 | 85 | 1.0 | 1.0 | 0.00 | 0.00 | 0.31 | 79 | 1007.9 |
| 20260506221838 | 70 | 270 | 3.0 | 3.0 | 0.00 | 0.00 | 0.31 | 79 | 1008.2 |
| 20260506221337 | 70 | 172 | 0.0 | 1.0 | 0.00 | 0.00 | 0.31 | 79 | 1007.4 |
| 20260506220837 | 70 | 78 | 2.0 | 2.0 | 0.00 | 0.00 | 0.31 | 78 | 1007.9 |
| 20260506220338 | 70 | 123 | 0.0 | 0.0 | 0.00 | 0.00 | 0.31 | 79 | 1007.8 |
| 20260506215837 | 70 | 59 | 2.0 | 3.0 | 0.00 | 0.00 | 0.31 | 79 | 1007.7 |
| 20260506215338 | 70 | 52 | 2.0 | 2.0 | 0.00 | 0.00 | 0.31 | 79 | 1007.9 |
| 20260506214837 | 70 | 86 | 1.0 | 2.0 | 0.00 | 0.00 | 0.31 | 78 | 1007.8 |
| 20260506214337 | 70 | 217 | 1.0 | 1.0 | 0.00 | 0.00 | 0.31 | 78 | 1007.6 |
| 20260506213837 | 70 | 77 | 1.0 | 2.0 | 0.00 | 0.00 | 0.31 | 77 | 1007.9 |
| 20260506213338 | 70 | 125 | 2.0 | 3.0 | 0.00 | 0.00 | 0.31 | 78 | 1007.8 |
| 20260506212837 | 70 | 97 | 1.0 | 1.0 | 0.00 | 0.00 | 0.31 | 77 | 1007.8 |
| 20260506212338 | 70 | 104 | 2.0 | 2.0 | 0.00 | 0.00 | 0.31 | 78 | 1007.8 |
| 20260506211837 | 70 | 176 | 1.0 | 1.0 | 0.00 | 0.00 | 0.31 | 79 | 1007.8 |
| 20260506211337 | 70 | 115 | 0.0 | 0.0 | 0.00 | 0.00 | 0.31 | 79 | 1007.9 |
| 20260506210837 | 70 | 100 | 3.0 | 3.0 | 0.00 | 0.00 | 0.31 | 79 | 1007.9 |
| 20260506210337 | 70 | 102 | 0.0 | 0.0 | 0.00 | 0.00 | 0.31 | 78 | 1007.6 |
| 20260506205838 | 70 | 140 | 1.0 | 2.0 | 0.00 | 0.00 | 0.31 | 78 | 1007.6 |
| 20260506205337 | 71 | 237 | 2.0 | 4.0 | 0.00 | 0.00 | 0.31 | 77 | 1007.4 |
| 20260506204838 | 70 | 116 | 1.0 | 2.0 | 0.00 | 0.00 | 0.31 | 78 | 1007.5 |
| 20260506204337 | 71 | 89 | 6.0 | 9.0 | 0.00 | 0.00 | 0.31 | 77 | 1007.5 |
| 20260506203838 | 70 | 73 | 2.0 | 4.0 | 0.00 | 0.00 | 0.31 | 78 | 1007.3 |
| 20260506203338 | 69 | 110 | 1.0 | 1.0 | 0.00 | 0.00 | 0.31 | 79 | 1007.2 |
| 20260506202838 | 70 | 127 | 1.0 | 1.0 | 0.00 | 0.00 | 0.31 | 78 | 1007.6 |
| 20260506202338 | 71 | 134 | 1.0 | 1.0 | 0.00 | 0.00 | 0.31 | 77 | 1007.4 |
| 20260506201838 | 71 | 87 | 1.0 | 1.0 | 0.00 | 0.00 | 0.31 | 78 | 1007.3 |
| 20260506201337 | 70 | 112 | 1.0 | 2.0 | 0.00 | 0.00 | 0.31 | 78 | 1007.4 |
| 20260506200837 | 69 | 89 | 1.0 | 1.0 | 0.00 | 0.00 | 0.31 | 79 | 1007.6 |
| 20260506200337 | 68 | 161 | 3.0 | 4.0 | 0.00 | 0.00 | 0.31 | 80 | 1007.7 |
| 20260506195837 | 69 | 118 | 2.0 | 2.0 | 0.00 | 0.00 | 0.31 | 81 | 1007.6 |
| 20260506195338 | 69 | 92 | 2.0 | 3.0 | 0.00 | 0.00 | 0.31 | 80 | 1007.6 |
| 20260506194838 | 69 | 148 | 0.0 | 0.0 | 0.00 | 0.00 | 0.31 | 80 | 1007.7 |
| 20260506194337 | 69 | 32 | 2.0 | 3.0 | 0.00 | 0.00 | 0.31 | 80 | 1007.7 |
| 20260506193838 | 69 | 145 | 2.0 | 2.0 | 0.00 | 0.00 | 0.31 | 80 | 1007.7 |
| 20260506193337 | 69 | 117 | 1.0 | 1.0 | 0.00 | 0.00 | 0.31 | 79 | 1007.7 |
| 20260506192838 | 68 | 100 | 1.0 | 1.0 | 0.00 | 0.00 | 0.31 | 81 | 1007.5 |
| 20260506192338 | 68 | 117 | 2.0 | 2.0 | 0.00 | 0.00 | 0.31 | 81 | 1007.8 |
| 20260506191837 | 68 | 126 | 2.0 | 2.0 | 0.00 | 0.00 | 0.31 | 81 | 1008.0 |
| 20260506191338 | 68 | 122 | 5.0 | 8.0 | 0.00 | 0.00 | 0.31 | 80 | 1008.0 |
| 20260506190837 | 68 | 90 | 1.0 | 1.0 | 0.00 | 0.00 | 0.31 | 81 | 1007.8 |
| 20260506190337 | 68 | 111 | 1.0 | 1.0 | 0.00 | 0.00 | 0.31 | 81 | 1008.0 |
| 20260506185837 | 68 | 54 | 3.0 | 4.0 | 0.00 | 0.00 | 0.31 | 80 | 1008.0 |
| 20260506185337 | 68 | 105 | 1.0 | 2.0 | 0.00 | 0.00 | 0.31 | 82 | 1007.9 |
| 20260506184838 | 67 | 112 | 0.0 | 0.0 | 0.00 | 0.00 | 0.31 | 83 | 1008.2 |
| 20260506184338 | 67 | 124 | 0.0 | 0.0 | 0.00 | 0.00 | 0.31 | 83 | 1008.3 |
| 20260506183838 | 67 | 146 | 1.0 | 1.0 | 0.00 | 0.00 | 0.31 | 83 | 1008.2 |
| 20260506183338 | 67 | 155 | 3.0 | 4.0 | 0.00 | 0.00 | 0.31 | 83 | 1008.2 |
| 20260506182837 | 66 | 89 | 1.0 | 2.0 | 0.00 | 0.00 | 0.31 | 84 | 1008.2 |
| 20260506182338 | 67 | 120 | 0.0 | 1.0 | 0.00 | 0.00 | 0.31 | 83 | 1008.3 |
| 20260506181837 | 66 | 157 | 2.0 | 2.0 | 0.00 | 0.00 | 0.31 | 83 | 1008.5 |
| 20260506181338 | 67 | 116 | 0.0 | 1.0 | 0.00 | 0.00 | 0.31 | 84 | 1008.7 |
| 20260506180837 | 66 | 121 | 0.0 | 1.0 | 0.00 | 0.00 | 0.31 | 84 | 1008.3 |
| 20260506180338 | 66 | 118 | 2.0 | 2.0 | 0.00 | 0.00 | 0.31 | 83 | 1008.5 |
| 20260506175837 | 66 | 268 | 2.0 | 3.0 | 0.00 | 0.00 | 0.31 | 83 | 1008.7 |
| 20260506175337 | 66 | 103 | 4.0 | 6.0 | 0.00 | 0.00 | 0.31 | 83 | 1008.5 |
| 20260506174838 | 66 | 57 | 1.0 | 1.0 | 0.00 | 0.00 | 0.31 | 84 | 1008.7 |
| 20260506174338 | 66 | 119 | 0.0 | 0.0 | 0.00 | 0.00 | 0.31 | 84 | 1008.8 |
| 20260506173838 | 65 | 167 | 1.0 | 1.0 | 0.00 | 0.00 | 0.31 | 85 | 1008.8 |
| 20260506173338 | 65 | 137 | 1.0 | 2.0 | 0.00 | 0.00 | 0.31 | 86 | 1008.8 |
| 20260506172838 | 65 | 352 | 4.0 | 6.0 | 0.00 | 0.00 | 0.31 | 87 | 1008.7 |
| 20260506172338 | 64 | 88 | 2.0 | 2.0 | 0.00 | 0.00 | 0.31 | 87 | 1008.7 |
| 20260506171838 | 64 | 114 | 3.0 | 4.0 | 0.00 | 0.00 | 0.31 | 87 | 1008.7 |
| 20260506171337 | 64 | 74 | 2.0 | 2.0 | 0.00 | 0.00 | 0.31 | 87 | 1008.8 |
| 20260506170837 | 64 | 99 | 0.0 | 1.0 | 0.00 | 0.00 | 0.31 | 88 | 1008.7 |
| 20260506170337 | 64 | 132 | 0.0 | 1.0 | 0.00 | 0.00 | 0.31 | 88 | 1008.9 |
| 20260506165838 | 64 | 1 | 2.0 | 3.0 | 0.00 | 0.00 | 0.31 | 87 | 1008.9 |
| 20260506165337 | 64 | 88 | 1.0 | 1.0 | 0.00 | 0.00 | 0.31 | 88 | 1008.8 |
| 20260506164837 | 64 | 130 | 2.0 | 2.0 | 0.00 | 0.00 | 0.31 | 89 | 1008.7 |
| 20260506164338 | 64 | 70 | 2.0 | 4.0 | 0.00 | 0.00 | 0.31 | 89 | 1008.5 |
| 20260506163837 | 63 | 130 | 1.0 | 2.0 | 0.00 | 0.00 | 0.31 | 90 | 1008.5 |
| 20260506163337 | 63 | 286 | 2.0 | 4.0 | 0.00 | 0.00 | 0.31 | 90 | 1009.0 |
| 20260506162837 | 63 | 173 | 2.0 | 2.0 | 0.00 | 0.00 | 0.31 | 91 | 1008.8 |
| 20260506162337 | 63 | 343 | 2.0 | 3.0 | 0.00 | 0.00 | 0.31 | 93 | 1008.7 |
| 20260506161837 | 62 | 218 | 3.0 | 4.0 | 0.00 | 0.00 | 0.31 | 95 | 1009.0 |
| 20260506161338 | 62 | 114 | 2.0 | 3.0 | 0.00 | 0.00 | 0.31 | 96 | 1009.1 |
| 20260506160837 | 62 | 303 | 2.0 | 3.0 | 0.00 | 0.00 | 0.31 | 97 | 1009.1 |
| 20260506160338 | 61 | 118 | 2.0 | 2.0 | 0.00 | 0.00 | 0.31 | 97 | 1008.8 |
| 20260506160134 | 61 | 118 | 2.0 | 2.0 | 0.00 | 0.00 | 0.31 | 97 | 1008.8 |
| 20260506155339 | 62 | 26 | 0.0 | 2.0 | 0.00 | 0.00 | 0.31 | 98 | 1008.8 |
| 20260506154839 | 61 | 155 | 3.0 | 3.0 | 0.00 | 0.00 | 0.31 | 98 | 1008.7 |
| 20260506154340 | 61 | 73 | 1.0 | 1.0 | 0.00 | 0.00 | 0.31 | 98 | 1009.0 |
| 20260506153839 | 61 | 97 | 1.0 | 1.0 | 0.00 | 0.00 | 0.31 | 99 | 1008.9 |
| 20260506153338 | 61 | 47 | 0.0 | 0.0 | 0.00 | 0.00 | 0.31 | 99 | 1009.1 |
| 20260506152837 | 61 | 142 | 2.0 | 3.0 | 0.00 | 0.00 | 0.31 | 99 | 1009.2 |
| 20260506152338 | 61 | 61 | 3.0 | 4.0 | 0.00 | 0.00 | 0.31 | 99 | 1009.3 |
| 20260506151940 | 60 | 19 | 1.0 | 1.0 | 0.00 | 0.00 | 0.31 | 99 | 1009.1 |
| 20260506151338 | 60 | 132 | 0.0 | 1.0 | 0.00 | 0.00 | 0.31 | 99 | 1008.9 |
| 20260506150838 | 60 | 106 | 2.0 | 3.0 | 0.00 | 0.00 | 0.31 | 99 | 1009.5 |
| 20260506150338 | 59 | 106 | 1.0 | 3.0 | 0.00 | 0.00 | 0.31 | 99 | 1009.3 |
| 20260506145838 | 60 | 102 | 2.0 | 2.0 | 0.00 | 0.00 | 0.30 | 99 | 1009.4 |
| 20260506145337 | 60 | 130 | 0.0 | 0.0 | 0.00 | 0.00 | 0.30 | 99 | 1009.4 |